sensor_id;sensor_type;location;lat;lon;timestamp;temperature;humidity
1391;DHT22;690;51.454;7.194;2023-11-19T00:00:10;9.00;1.00
1391;DHT22;690;51.454;7.194;2023-11-19T00:02:44;9.00;1.00
1391;DHT22;690;51.454;7.194;2023-11-19T00:05:13;9.10;1.00
1391;DHT22;690;51.454;7.194;2023-11-19T00:07:40;9.10;1.00
1391;DHT22;690;51.454;7.194;2023-11-19T00:10:10;9.20;1.00
1391;DHT22;690;51.454;7.194;2023-11-19T00:12:37;9.20;1.00
1391;DHT22;690;51.454;7.194;2023-11-19T00:15:06;9.20;1.00
1391;DHT22;690;51.454;7.194;2023-11-19T00:17:37;9.30;1.00
1391;DHT22;690;51.454;7.194;2023-11-19T00:20:06;9.30;1.00
1391;DHT22;690;51.454;7.194;2023-11-19T00:22:33;9.30;1.00
1391;DHT22;690;51.454;7.194;2023-11-19T00:25:00;9.30;1.00
1391;DHT22;690;51.454;7.194;2023-11-19T00:27:29;9.30;1.00
1391;DHT22;690;51.454;7.194;2023-11-19T00:29:56;9.40;1.00
1391;DHT22;690;51.454;7.194;2023-11-19T00:32:24;9.50;1.00
1391;DHT22;690;51.454;7.194;2023-11-19T00:34:50;9.40;1.00
1391;DHT22;690;51.454;7.194;2023-11-19T00:37:17;9.50;1.00
1391;DHT22;690;51.454;7.194;2023-11-19T00:39:44;9.50;1.00
1391;DHT22;690;51.454;7.194;2023-11-19T00:42:12;9.50;1.00
1391;DHT22;690;51.454;7.194;2023-11-19T00:44:40;9.60;1.00
1391;DHT22;690;51.454;7.194;2023-11-19T00:47:09;9.60;1.00
1391;DHT22;690;51.454;7.194;2023-11-19T00:49:36;9.70;1.00
1391;DHT22;690;51.454;7.194;2023-11-19T00:52:03;9.70;1.00
1391;DHT22;690;51.454;7.194;2023-11-19T00:54:31;9.80;1.00
1391;DHT22;690;51.454;7.194;2023-11-19T00:56:58;9.80;1.00
1391;DHT22;690;51.454;7.194;2023-11-19T00:59:27;9.80;1.00
1391;DHT22;690;51.454;7.194;2023-11-19T01:01:55;9.90;1.00
1391;DHT22;690;51.454;7.194;2023-11-19T01:04:23;9.90;1.00
1391;DHT22;690;51.454;7.194;2023-11-19T01:06:50;9.90;1.00
1391;DHT22;690;51.454;7.194;2023-11-19T01:09:17;10.00;1.00
1391;DHT22;690;51.454;7.194;2023-11-19T01:11:44;9.90;1.00
1391;DHT22;690;51.454;7.194;2023-11-19T01:14:11;10.00;1.00
1391;DHT22;690;51.454;7.194;2023-11-19T01:16:37;10.00;1.00
1391;DHT22;690;51.454;7.194;2023-11-19T01:19:06;10.00;1.00
1391;DHT22;690;51.454;7.194;2023-11-19T01:21:33;10.00;1.00
1391;DHT22;690;51.454;7.194;2023-11-19T01:24:00;10.00;1.00
1391;DHT22;690;51.454;7.194;2023-11-19T01:26:28;10.00;1.00
1391;DHT22;690;51.454;7.194;2023-11-19T01:28:55;10.00;1.00
1391;DHT22;690;51.454;7.194;2023-11-19T01:31:22;10.10;1.00
1391;DHT22;690;51.454;7.194;2023-11-19T01:33:49;10.10;1.00
1391;DHT22;690;51.454;7.194;2023-11-19T01:36:17;10.10;1.00
1391;DHT22;690;51.454;7.194;2023-11-19T01:38:44;10.10;1.00
1391;DHT22;690;51.454;7.194;2023-11-19T01:41:11;10.10;1.00
1391;DHT22;690;51.454;7.194;2023-11-19T01:43:39;10.20;1.00
1391;DHT22;690;51.454;7.194;2023-11-19T01:46:08;10.20;1.00
1391;DHT22;690;51.454;7.194;2023-11-19T01:48:39;10.20;1.00
1391;DHT22;690;51.454;7.194;2023-11-19T01:51:07;10.20;1.00
1391;DHT22;690;51.454;7.194;2023-11-19T01:53:37;10.20;1.00
1391;DHT22;690;51.454;7.194;2023-11-19T01:56:07;10.20;1.00
1391;DHT22;690;51.454;7.194;2023-11-19T01:58:35;10.20;1.00
1391;DHT22;690;51.454;7.194;2023-11-19T02:01:03;10.20;1.00
1391;DHT22;690;51.454;7.194;2023-11-19T02:03:31;10.20;1.00
1391;DHT22;690;51.454;7.194;2023-11-19T02:05:59;10.30;1.00
1391;DHT22;690;51.454;7.194;2023-11-19T02:08:26;10.30;1.00
1391;DHT22;690;51.454;7.194;2023-11-19T02:10:54;10.30;1.00
1391;DHT22;690;51.454;7.194;2023-11-19T02:13:26;10.30;1.00
1391;DHT22;690;51.454;7.194;2023-11-19T02:15:54;10.30;1.00
1391;DHT22;690;51.454;7.194;2023-11-19T02:18:23;10.40;1.00
1391;DHT22;690;51.454;7.194;2023-11-19T02:20:53;10.40;1.00
1391;DHT22;690;51.454;7.194;2023-11-19T02:23:21;10.40;1.00
1391;DHT22;690;51.454;7.194;2023-11-19T02:25:59;10.40;1.00
1391;DHT22;690;51.454;7.194;2023-11-19T02:28:29;10.40;1.00
1391;DHT22;690;51.454;7.194;2023-11-19T02:30:56;10.40;1.00
1391;DHT22;690;51.454;7.194;2023-11-19T02:33:23;10.50;1.00
1391;DHT22;690;51.454;7.194;2023-11-19T02:35:50;10.50;1.00
1391;DHT22;690;51.454;7.194;2023-11-19T02:38:18;10.50;1.00
1391;DHT22;690;51.454;7.194;2023-11-19T02:40:47;10.50;1.00
1391;DHT22;690;51.454;7.194;2023-11-19T02:43:14;10.60;1.00
1391;DHT22;690;51.454;7.194;2023-11-19T02:45:43;10.60;1.00
1391;DHT22;690;51.454;7.194;2023-11-19T02:48:11;10.60;1.00
1391;DHT22;690;51.454;7.194;2023-11-19T02:50:39;10.50;1.00
1391;DHT22;690;51.454;7.194;2023-11-19T02:53:07;10.50;1.00
1391;DHT22;690;51.454;7.194;2023-11-19T02:55:34;10.50;1.00
1391;DHT22;690;51.454;7.194;2023-11-19T02:58:04;10.50;1.00
1391;DHT22;690;51.454;7.194;2023-11-19T03:00:40;10.60;1.00
1391;DHT22;690;51.454;7.194;2023-11-19T03:03:14;10.60;1.00
1391;DHT22;690;51.454;7.194;2023-11-19T03:05:46;10.60;1.00
1391;DHT22;690;51.454;7.194;2023-11-19T03:08:14;10.60;1.00
1391;DHT22;690;51.454;7.194;2023-11-19T03:10:41;10.70;1.00
1391;DHT22;690;51.454;7.194;2023-11-19T03:13:11;10.70;1.00
1391;DHT22;690;51.454;7.194;2023-11-19T03:15:49;10.70;1.00
1391;DHT22;690;51.454;7.194;2023-11-19T03:18:18;10.70;1.00
1391;DHT22;690;51.454;7.194;2023-11-19T03:20:47;10.70;1.00
1391;DHT22;690;51.454;7.194;2023-11-19T03:23:15;10.70;1.00
1391;DHT22;690;51.454;7.194;2023-11-19T03:25:42;10.70;1.00
1391;DHT22;690;51.454;7.194;2023-11-19T03:28:09;10.70;1.00
1391;DHT22;690;51.454;7.194;2023-11-19T03:30:36;10.70;1.00
1391;DHT22;690;51.454;7.194;2023-11-19T03:33:04;10.70;1.00
1391;DHT22;690;51.454;7.194;2023-11-19T03:35:33;10.70;1.00
1391;DHT22;690;51.454;7.194;2023-11-19T03:38:00;10.70;1.00
1391;DHT22;690;51.454;7.194;2023-11-19T03:40:28;10.70;1.00
1391;DHT22;690;51.454;7.194;2023-11-19T03:42:56;10.70;1.00
1391;DHT22;690;51.454;7.194;2023-11-19T03:45:23;10.70;1.00
1391;DHT22;690;51.454;7.194;2023-11-19T03:47:50;10.70;1.00
1391;DHT22;690;51.454;7.194;2023-11-19T03:50:17;10.70;1.00
1391;DHT22;690;51.454;7.194;2023-11-19T03:52:47;10.60;1.00
1391;DHT22;690;51.454;7.194;2023-11-19T03:55:13;10.60;1.00
1391;DHT22;690;51.454;7.194;2023-11-19T03:57:41;10.50;1.00
1391;DHT22;690;51.454;7.194;2023-11-19T04:00:08;10.30;1.00
1391;DHT22;690;51.454;7.194;2023-11-19T04:02:35;10.20;1.00
1391;DHT22;690;51.454;7.194;2023-11-19T04:05:03;10.20;1.00
1391;DHT22;690;51.454;7.194;2023-11-19T04:07:30;10.20;1.00
1391;DHT22;690;51.454;7.194;2023-11-19T04:09:59;10.20;1.00
1391;DHT22;690;51.454;7.194;2023-11-19T04:12:46;10.30;1.00
1391;DHT22;690;51.454;7.194;2023-11-19T04:15:14;10.20;1.00
1391;DHT22;690;51.454;7.194;2023-11-19T04:17:41;10.20;1.00
1391;DHT22;690;51.454;7.194;2023-11-19T04:20:09;10.20;1.00
1391;DHT22;690;51.454;7.194;2023-11-19T04:22:38;10.20;1.00
1391;DHT22;690;51.454;7.194;2023-11-19T04:25:08;10.10;1.00
1391;DHT22;690;51.454;7.194;2023-11-19T04:27:36;10.10;1.00
1391;DHT22;690;51.454;7.194;2023-11-19T04:30:04;10.10;1.00
1391;DHT22;690;51.454;7.194;2023-11-19T04:32:32;10.00;1.00
1391;DHT22;690;51.454;7.194;2023-11-19T04:34:59;9.90;1.00
1391;DHT22;690;51.454;7.194;2023-11-19T04:37:26;9.90;1.00
1391;DHT22;690;51.454;7.194;2023-11-19T04:39:53;9.80;1.00
1391;DHT22;690;51.454;7.194;2023-11-19T04:42:23;9.80;1.00
1391;DHT22;690;51.454;7.194;2023-11-19T04:44:50;9.80;1.00
1391;DHT22;690;51.454;7.194;2023-11-19T04:47:18;9.80;1.00
1391;DHT22;690;51.454;7.194;2023-11-19T04:49:44;9.80;1.00
1391;DHT22;690;51.454;7.194;2023-11-19T04:52:11;9.80;1.00
1391;DHT22;690;51.454;7.194;2023-11-19T04:54:41;9.80;1.00
1391;DHT22;690;51.454;7.194;2023-11-19T04:57:08;9.90;1.00
1391;DHT22;690;51.454;7.194;2023-11-19T04:59:38;9.80;99.90
1391;DHT22;690;51.454;7.194;2023-11-19T05:02:05;9.80;99.90
1391;DHT22;690;51.454;7.194;2023-11-19T05:04:32;9.80;99.90
1391;DHT22;690;51.454;7.194;2023-11-19T05:06:59;9.70;99.90
1391;DHT22;690;51.454;7.194;2023-11-19T05:09:24;9.70;99.90
1391;DHT22;690;51.454;7.194;2023-11-19T05:11:52;9.70;99.90
1391;DHT22;690;51.454;7.194;2023-11-19T05:14:19;9.70;99.90
1391;DHT22;690;51.454;7.194;2023-11-19T05:16:48;9.80;99.90
1391;DHT22;690;51.454;7.194;2023-11-19T05:19:15;9.80;99.90
1391;DHT22;690;51.454;7.194;2023-11-19T05:21:42;9.90;99.90
1391;DHT22;690;51.454;7.194;2023-11-19T05:24:09;10.00;99.90
1391;DHT22;690;51.454;7.194;2023-11-19T05:26:36;10.00;85.20
1391;DHT22;690;51.454;7.194;2023-11-19T05:29:03;10.00;99.90
1391;DHT22;690;51.454;7.194;2023-11-19T05:31:31;10.00;11.10
1391;DHT22;690;51.454;7.194;2023-11-19T05:33:59;9.90;1.00
1391;DHT22;690;51.454;7.194;2023-11-19T05:36:26;9.90;1.00
1391;DHT22;690;51.454;7.194;2023-11-19T05:38:54;10.00;1.00
1391;DHT22;690;51.454;7.194;2023-11-19T05:41:21;10.00;1.00
1391;DHT22;690;51.454;7.194;2023-11-19T05:43:48;10.00;1.00
1391;DHT22;690;51.454;7.194;2023-11-19T05:46:15;10.00;1.00
1391;DHT22;690;51.454;7.194;2023-11-19T05:48:42;10.10;1.00
1391;DHT22;690;51.454;7.194;2023-11-19T05:51:12;10.10;1.00
1391;DHT22;690;51.454;7.194;2023-11-19T05:53:39;10.10;99.90
1391;DHT22;690;51.454;7.194;2023-11-19T05:56:06;10.10;99.90
1391;DHT22;690;51.454;7.194;2023-11-19T05:58:35;10.10;30.00
1391;DHT22;690;51.454;7.194;2023-11-19T06:01:03;10.20;1.00
1391;DHT22;690;51.454;7.194;2023-11-19T06:03:32;10.20;1.00
1391;DHT22;690;51.454;7.194;2023-11-19T06:05:59;10.20;1.00
1391;DHT22;690;51.454;7.194;2023-11-19T06:08:27;10.20;1.00
1391;DHT22;690;51.454;7.194;2023-11-19T06:10:56;10.10;1.00
1391;DHT22;690;51.454;7.194;2023-11-19T06:13:23;10.20;1.00
1391;DHT22;690;51.454;7.194;2023-11-19T06:15:51;10.10;1.00
1391;DHT22;690;51.454;7.194;2023-11-19T06:18:18;10.00;1.00
1391;DHT22;690;51.454;7.194;2023-11-19T06:20:45;10.10;1.00
1391;DHT22;690;51.454;7.194;2023-11-19T06:23:12;9.90;1.00
1391;DHT22;690;51.454;7.194;2023-11-19T06:25:41;9.90;1.00
1391;DHT22;690;51.454;7.194;2023-11-19T06:28:08;9.90;1.00
1391;DHT22;690;51.454;7.194;2023-11-19T06:30:35;9.90;1.00
1391;DHT22;690;51.454;7.194;2023-11-19T06:33:02;9.80;1.00
1391;DHT22;690;51.454;7.194;2023-11-19T06:35:30;9.80;99.90
1391;DHT22;690;51.454;7.194;2023-11-19T06:38:02;9.80;99.90
1391;DHT22;690;51.454;7.194;2023-11-19T06:40:28;9.80;99.90
1391;DHT22;690;51.454;7.194;2023-11-19T06:42:57;9.80;57.50
1391;DHT22;690;51.454;7.194;2023-11-19T06:45:24;9.80;99.90
1391;DHT22;690;51.454;7.194;2023-11-19T06:47:51;9.80;22.40
1391;DHT22;690;51.454;7.194;2023-11-19T06:50:18;9.90;1.00
1391;DHT22;690;51.454;7.194;2023-11-19T06:52:44;9.90;1.00
1391;DHT22;690;51.454;7.194;2023-11-19T06:55:11;9.90;1.00
1391;DHT22;690;51.454;7.194;2023-11-19T06:57:38;10.00;1.00
1391;DHT22;690;51.454;7.194;2023-11-19T07:00:08;10.00;1.00
1391;DHT22;690;51.454;7.194;2023-11-19T07:02:36;10.00;1.00
1391;DHT22;690;51.454;7.194;2023-11-19T07:05:04;10.00;99.90
1391;DHT22;690;51.454;7.194;2023-11-19T07:07:31;10.00;99.90
1391;DHT22;690;51.454;7.194;2023-11-19T07:09:59;10.00;99.90
1391;DHT22;690;51.454;7.194;2023-11-19T07:12:27;10.00;99.90
1391;DHT22;690;51.454;7.194;2023-11-19T07:14:54;10.00;1.00
1391;DHT22;690;51.454;7.194;2023-11-19T07:17:23;10.00;1.00
1391;DHT22;690;51.454;7.194;2023-11-19T07:19:50;10.00;99.90
1391;DHT22;690;51.454;7.194;2023-11-19T07:22:17;10.10;99.90
1391;DHT22;690;51.454;7.194;2023-11-19T07:24:44;10.10;99.90
1391;DHT22;690;51.454;7.194;2023-11-19T07:27:11;10.00;99.90
1391;DHT22;690;51.454;7.194;2023-11-19T07:29:39;10.10;99.90
1391;DHT22;690;51.454;7.194;2023-11-19T07:32:06;10.00;1.00
1391;DHT22;690;51.454;7.194;2023-11-19T07:34:35;10.10;19.10
1391;DHT22;690;51.454;7.194;2023-11-19T07:37:05;10.10;1.00
1391;DHT22;690;51.454;7.194;2023-11-19T07:39:32;10.10;1.00
1391;DHT22;690;51.454;7.194;2023-11-19T07:42:00;10.20;1.00
1391;DHT22;690;51.454;7.194;2023-11-19T07:44:27;10.20;1.00
1391;DHT22;690;51.454;7.194;2023-11-19T07:46:54;10.20;1.00
1391;DHT22;690;51.454;7.194;2023-11-19T07:49:21;10.30;1.00
1391;DHT22;690;51.454;7.194;2023-11-19T07:51:49;10.20;1.00
1391;DHT22;690;51.454;7.194;2023-11-19T07:54:17;10.10;1.00
1391;DHT22;690;51.454;7.194;2023-11-19T07:56:44;10.10;1.00
1391;DHT22;690;51.454;7.194;2023-11-19T07:59:10;10.10;1.00
1391;DHT22;690;51.454;7.194;2023-11-19T08:01:37;10.00;1.00
1391;DHT22;690;51.454;7.194;2023-11-19T08:04:04;10.00;1.00
1391;DHT22;690;51.454;7.194;2023-11-19T08:06:31;9.90;1.00
1391;DHT22;690;51.454;7.194;2023-11-19T08:09:00;9.90;1.00
1391;DHT22;690;51.454;7.194;2023-11-19T08:11:26;9.80;1.00
1391;DHT22;690;51.454;7.194;2023-11-19T08:13:53;9.90;1.00
1391;DHT22;690;51.454;7.194;2023-11-19T08:16:20;9.90;1.00
1391;DHT22;690;51.454;7.194;2023-11-19T08:18:47;9.90;1.00
1391;DHT22;690;51.454;7.194;2023-11-19T08:21:16;10.00;1.00
1391;DHT22;690;51.454;7.194;2023-11-19T08:23:43;10.10;1.00
1391;DHT22;690;51.454;7.194;2023-11-19T08:26:11;10.10;99.90
1391;DHT22;690;51.454;7.194;2023-11-19T08:28:38;10.20;99.90
1391;DHT22;690;51.454;7.194;2023-11-19T08:31:06;10.20;99.90
1391;DHT22;690;51.454;7.194;2023-11-19T08:33:33;10.20;99.90
1391;DHT22;690;51.454;7.194;2023-11-19T08:36:00;10.20;99.90
1391;DHT22;690;51.454;7.194;2023-11-19T08:38:29;10.30;99.90
1391;DHT22;690;51.454;7.194;2023-11-19T08:40:56;10.40;99.90
1391;DHT22;690;51.454;7.194;2023-11-19T08:43:27;10.40;99.90
1391;DHT22;690;51.454;7.194;2023-11-19T08:45:57;10.40;99.90
1391;DHT22;690;51.454;7.194;2023-11-19T08:48:24;10.50;99.90
1391;DHT22;690;51.454;7.194;2023-11-19T08:50:52;10.50;99.90
1391;DHT22;690;51.454;7.194;2023-11-19T08:53:19;10.50;99.90
1391;DHT22;690;51.454;7.194;2023-11-19T08:55:46;10.50;99.90
1391;DHT22;690;51.454;7.194;2023-11-19T08:58:13;10.40;99.90
1391;DHT22;690;51.454;7.194;2023-11-19T09:00:41;10.40;99.90
1391;DHT22;690;51.454;7.194;2023-11-19T09:03:08;10.30;99.90
1391;DHT22;690;51.454;7.194;2023-11-19T09:05:35;10.40;99.90
1391;DHT22;690;51.454;7.194;2023-11-19T09:08:04;10.50;99.90
1391;DHT22;690;51.454;7.194;2023-11-19T09:10:32;10.50;99.90
1391;DHT22;690;51.454;7.194;2023-11-19T09:12:58;10.50;99.90
1391;DHT22;690;51.454;7.194;2023-11-19T09:15:25;10.60;99.90
1391;DHT22;690;51.454;7.194;2023-11-19T09:17:53;10.60;99.90
1391;DHT22;690;51.454;7.194;2023-11-19T09:20:20;10.70;99.90
1391;DHT22;690;51.454;7.194;2023-11-19T09:22:47;10.80;99.90
1391;DHT22;690;51.454;7.194;2023-11-19T09:25:14;10.90;99.90
1391;DHT22;690;51.454;7.194;2023-11-19T09:27:42;10.90;94.30
1391;DHT22;690;51.454;7.194;2023-11-19T09:30:10;11.00;79.50
1391;DHT22;690;51.454;7.194;2023-11-19T09:32:37;11.00;47.90
1391;DHT22;690;51.454;7.194;2023-11-19T09:35:06;11.00;60.30
1391;DHT22;690;51.454;7.194;2023-11-19T09:37:33;11.00;34.50
1391;DHT22;690;51.454;7.194;2023-11-19T09:40:00;11.10;20.10
1391;DHT22;690;51.454;7.194;2023-11-19T09:42:27;11.10;13.10
1391;DHT22;690;51.454;7.194;2023-11-19T09:44:55;11.10;1.00
1391;DHT22;690;51.454;7.194;2023-11-19T09:47:23;11.20;1.00
1391;DHT22;690;51.454;7.194;2023-11-19T09:49:53;11.20;1.00
1391;DHT22;690;51.454;7.194;2023-11-19T09:52:21;11.30;1.00
1391;DHT22;690;51.454;7.194;2023-11-19T09:54:50;11.30;1.00
1391;DHT22;690;51.454;7.194;2023-11-19T09:57:17;11.20;1.00
1391;DHT22;690;51.454;7.194;2023-11-19T09:59:45;11.10;1.00
1391;DHT22;690;51.454;7.194;2023-11-19T10:02:13;11.00;1.00
1391;DHT22;690;51.454;7.194;2023-11-19T10:04:42;11.10;1.00
1391;DHT22;690;51.454;7.194;2023-11-19T10:07:10;11.10;1.00
1391;DHT22;690;51.454;7.194;2023-11-19T10:09:39;11.00;1.00
1391;DHT22;690;51.454;7.194;2023-11-19T10:12:06;11.10;1.00
1391;DHT22;690;51.454;7.194;2023-11-19T10:14:35;11.10;1.00
1391;DHT22;690;51.454;7.194;2023-11-19T10:17:07;11.20;1.00
1391;DHT22;690;51.454;7.194;2023-11-19T10:19:34;11.30;1.00
1391;DHT22;690;51.454;7.194;2023-11-19T10:22:04;11.40;1.00
1391;DHT22;690;51.454;7.194;2023-11-19T10:24:34;11.40;1.00
1391;DHT22;690;51.454;7.194;2023-11-19T10:27:04;11.40;1.00
1391;DHT22;690;51.454;7.194;2023-11-19T10:29:36;11.40;1.00
1391;DHT22;690;51.454;7.194;2023-11-19T10:32:03;11.40;1.00
1391;DHT22;690;51.454;7.194;2023-11-19T10:34:30;11.50;1.00
1391;DHT22;690;51.454;7.194;2023-11-19T10:36:57;11.50;1.00
1391;DHT22;690;51.454;7.194;2023-11-19T10:39:33;11.50;1.00
1391;DHT22;690;51.454;7.194;2023-11-19T10:42:21;11.60;1.00
1391;DHT22;690;51.454;7.194;2023-11-19T10:44:48;11.60;1.00
1391;DHT22;690;51.454;7.194;2023-11-19T10:47:15;11.70;1.00
1391;DHT22;690;51.454;7.194;2023-11-19T10:49:45;11.70;1.00
1391;DHT22;690;51.454;7.194;2023-11-19T10:52:17;11.70;1.00
1391;DHT22;690;51.454;7.194;2023-11-19T10:54:44;11.80;1.00
1391;DHT22;690;51.454;7.194;2023-11-19T10:57:21;11.80;1.00
1391;DHT22;690;51.454;7.194;2023-11-19T10:59:52;11.80;1.00
1391;DHT22;690;51.454;7.194;2023-11-19T11:02:24;11.80;1.00
1391;DHT22;690;51.454;7.194;2023-11-19T11:04:52;11.70;1.00
1391;DHT22;690;51.454;7.194;2023-11-19T11:07:21;11.80;1.00
1391;DHT22;690;51.454;7.194;2023-11-19T11:09:51;11.90;1.00
1391;DHT22;690;51.454;7.194;2023-11-19T11:12:23;12.00;1.00
1391;DHT22;690;51.454;7.194;2023-11-19T11:14:51;12.00;1.00
1391;DHT22;690;51.454;7.194;2023-11-19T11:17:21;11.90;1.00
1391;DHT22;690;51.454;7.194;2023-11-19T11:19:51;11.90;1.00
1391;DHT22;690;51.454;7.194;2023-11-19T11:22:23;11.80;1.00
1391;DHT22;690;51.454;7.194;2023-11-19T11:25:12;11.70;1.00
1391;DHT22;690;51.454;7.194;2023-11-19T11:27:57;11.70;1.00
1391;DHT22;690;51.454;7.194;2023-11-19T11:30:35;11.70;1.00
1391;DHT22;690;51.454;7.194;2023-11-19T11:33:15;11.70;1.00
1391;DHT22;690;51.454;7.194;2023-11-19T11:35:53;11.70;1.00
1391;DHT22;690;51.454;7.194;2023-11-19T11:38:22;11.70;1.00
1391;DHT22;690;51.454;7.194;2023-11-19T11:41:20;11.70;1.00
1391;DHT22;690;51.454;7.194;2023-11-19T11:43:50;11.80;1.00
1391;DHT22;690;51.454;7.194;2023-11-19T11:46:55;11.90;1.00
1391;DHT22;690;51.454;7.194;2023-11-19T11:49:26;11.90;1.00
1391;DHT22;690;51.454;7.194;2023-11-19T11:52:02;11.90;1.00
1391;DHT22;690;51.454;7.194;2023-11-19T11:54:31;11.90;1.00
1391;DHT22;690;51.454;7.194;2023-11-19T11:57:06;12.00;1.00
1391;DHT22;690;51.454;7.194;2023-11-19T11:59:43;12.00;1.00
1391;DHT22;690;51.454;7.194;2023-11-19T12:02:13;12.00;1.00
1391;DHT22;690;51.454;7.194;2023-11-19T12:04:40;12.10;1.00
1391;DHT22;690;51.454;7.194;2023-11-19T12:07:12;12.00;1.00
1391;DHT22;690;51.454;7.194;2023-11-19T12:09:40;12.10;1.00
1391;DHT22;690;51.454;7.194;2023-11-19T12:12:13;12.10;1.00
1391;DHT22;690;51.454;7.194;2023-11-19T12:15:04;12.10;1.00
1391;DHT22;690;51.454;7.194;2023-11-19T12:17:37;12.00;1.00
1391;DHT22;690;51.454;7.194;2023-11-19T12:20:10;12.00;1.00
1391;DHT22;690;51.454;7.194;2023-11-19T12:22:37;12.00;1.00
1391;DHT22;690;51.454;7.194;2023-11-19T12:25:06;12.10;1.00
1391;DHT22;690;51.454;7.194;2023-11-19T12:27:33;12.10;1.00
1391;DHT22;690;51.454;7.194;2023-11-19T12:30:00;12.20;1.00
1391;DHT22;690;51.454;7.194;2023-11-19T12:32:39;12.20;1.00
1391;DHT22;690;51.454;7.194;2023-11-19T12:35:07;12.20;1.00
1391;DHT22;690;51.454;7.194;2023-11-19T12:37:41;12.20;1.00
1391;DHT22;690;51.454;7.194;2023-11-19T12:40:13;12.20;1.00
1391;DHT22;690;51.454;7.194;2023-11-19T12:42:40;12.20;1.00
1391;DHT22;690;51.454;7.194;2023-11-19T12:45:08;12.10;1.00
1391;DHT22;690;51.454;7.194;2023-11-19T12:47:38;12.20;1.00
1391;DHT22;690;51.454;7.194;2023-11-19T12:50:06;12.10;1.00
1391;DHT22;690;51.454;7.194;2023-11-19T12:52:36;12.20;1.00
1391;DHT22;690;51.454;7.194;2023-11-19T12:55:04;12.20;1.00
1391;DHT22;690;51.454;7.194;2023-11-19T12:57:39;12.10;1.00
1391;DHT22;690;51.454;7.194;2023-11-19T13:00:07;12.00;1.00
1391;DHT22;690;51.454;7.194;2023-11-19T13:02:47;11.90;1.00
1391;DHT22;690;51.454;7.194;2023-11-19T13:05:23;11.90;1.00
1391;DHT22;690;51.454;7.194;2023-11-19T13:07:50;11.70;1.00
1391;DHT22;690;51.454;7.194;2023-11-19T13:10:16;11.60;1.00
1391;DHT22;690;51.454;7.194;2023-11-19T13:12:43;11.50;1.00
1391;DHT22;690;51.454;7.194;2023-11-19T13:15:24;11.40;1.00
1391;DHT22;690;51.454;7.194;2023-11-19T13:17:53;11.30;1.00
1391;DHT22;690;51.454;7.194;2023-11-19T13:20:20;11.40;1.00
1391;DHT22;690;51.454;7.194;2023-11-19T13:22:58;11.40;1.00
1391;DHT22;690;51.454;7.194;2023-11-19T13:25:25;11.40;1.00
1391;DHT22;690;51.454;7.194;2023-11-19T13:27:53;11.40;1.00
1391;DHT22;690;51.454;7.194;2023-11-19T13:30:20;11.30;1.00
1391;DHT22;690;51.454;7.194;2023-11-19T13:32:48;11.30;1.00
1391;DHT22;690;51.454;7.194;2023-11-19T13:35:16;11.40;1.00
1391;DHT22;690;51.454;7.194;2023-11-19T13:37:44;11.40;1.00
1391;DHT22;690;51.454;7.194;2023-11-19T13:40:11;11.40;1.00
1391;DHT22;690;51.454;7.194;2023-11-19T13:42:42;11.50;1.00
1391;DHT22;690;51.454;7.194;2023-11-19T13:45:10;11.50;1.00
1391;DHT22;690;51.454;7.194;2023-11-19T13:47:38;11.40;1.00
1391;DHT22;690;51.454;7.194;2023-11-19T13:50:11;11.40;1.00
1391;DHT22;690;51.454;7.194;2023-11-19T13:52:41;11.30;1.00
1391;DHT22;690;51.454;7.194;2023-11-19T13:55:12;11.30;1.00
1391;DHT22;690;51.454;7.194;2023-11-19T13:57:41;11.20;1.00
1391;DHT22;690;51.454;7.194;2023-11-19T14:00:09;11.20;1.00
1391;DHT22;690;51.454;7.194;2023-11-19T14:02:38;11.20;1.00
1391;DHT22;690;51.454;7.194;2023-11-19T14:05:06;11.20;1.00
1391;DHT22;690;51.454;7.194;2023-11-19T14:07:33;11.20;1.00
1391;DHT22;690;51.454;7.194;2023-11-19T14:10:01;11.30;1.00
1391;DHT22;690;51.454;7.194;2023-11-19T14:12:28;11.50;1.00
1391;DHT22;690;51.454;7.194;2023-11-19T14:14:56;11.50;1.00
1391;DHT22;690;51.454;7.194;2023-11-19T14:17:22;11.50;1.00
1391;DHT22;690;51.454;7.194;2023-11-19T14:19:50;11.50;1.00
1391;DHT22;690;51.454;7.194;2023-11-19T14:22:17;11.30;1.00
1391;DHT22;690;51.454;7.194;2023-11-19T14:24:44;11.30;1.00
1391;DHT22;690;51.454;7.194;2023-11-19T14:27:12;11.30;1.00
1391;DHT22;690;51.454;7.194;2023-11-19T14:29:39;11.30;1.00
1391;DHT22;690;51.454;7.194;2023-11-19T14:32:06;11.30;1.00
1391;DHT22;690;51.454;7.194;2023-11-19T14:34:33;11.20;1.00
1391;DHT22;690;51.454;7.194;2023-11-19T14:37:00;11.20;1.00
1391;DHT22;690;51.454;7.194;2023-11-19T14:39:27;11.20;1.00
1391;DHT22;690;51.454;7.194;2023-11-19T14:41:55;11.10;1.00
1391;DHT22;690;51.454;7.194;2023-11-19T14:44:25;11.10;1.00
1391;DHT22;690;51.454;7.194;2023-11-19T14:46:52;11.00;1.00
1391;DHT22;690;51.454;7.194;2023-11-19T14:49:19;10.90;1.00
1391;DHT22;690;51.454;7.194;2023-11-19T14:51:45;10.90;1.00
1391;DHT22;690;51.454;7.194;2023-11-19T14:54:12;10.80;1.00
1391;DHT22;690;51.454;7.194;2023-11-19T14:56:41;10.80;1.00
1391;DHT22;690;51.454;7.194;2023-11-19T14:59:08;10.80;1.00
1391;DHT22;690;51.454;7.194;2023-11-19T15:01:37;10.60;1.00
1391;DHT22;690;51.454;7.194;2023-11-19T15:04:05;10.60;1.00
1391;DHT22;690;51.454;7.194;2023-11-19T15:06:33;10.60;1.00
1391;DHT22;690;51.454;7.194;2023-11-19T15:08:59;10.50;22.50
1391;DHT22;690;51.454;7.194;2023-11-19T15:11:26;10.50;37.00
1391;DHT22;690;51.454;7.194;2023-11-19T15:13:53;10.50;37.20
1391;DHT22;690;51.454;7.194;2023-11-19T15:16:20;10.40;35.50
1391;DHT22;690;51.454;7.194;2023-11-19T15:18:52;10.30;30.00
1391;DHT22;690;51.454;7.194;2023-11-19T15:21:19;10.20;41.70
1391;DHT22;690;51.454;7.194;2023-11-19T15:23:46;10.20;43.40
1391;DHT22;690;51.454;7.194;2023-11-19T15:26:13;10.10;54.10
1391;DHT22;690;51.454;7.194;2023-11-19T15:28:40;10.00;92.10
1391;DHT22;690;51.454;7.194;2023-11-19T15:31:07;9.90;99.90
1391;DHT22;690;51.454;7.194;2023-11-19T15:33:35;9.90;99.90
1391;DHT22;690;51.454;7.194;2023-11-19T15:36:04;9.90;99.90
1391;DHT22;690;51.454;7.194;2023-11-19T15:38:33;10.00;99.90
1391;DHT22;690;51.454;7.194;2023-11-19T15:41:00;10.00;99.90
1391;DHT22;690;51.454;7.194;2023-11-19T15:43:27;10.00;99.90
1391;DHT22;690;51.454;7.194;2023-11-19T15:45:54;10.00;99.90
1391;DHT22;690;51.454;7.194;2023-11-19T15:48:21;10.00;99.90
1391;DHT22;690;51.454;7.194;2023-11-19T15:50:48;10.00;99.90
1391;DHT22;690;51.454;7.194;2023-11-19T15:53:17;9.90;99.90
1391;DHT22;690;51.454;7.194;2023-11-19T15:55:44;9.80;99.90
1391;DHT22;690;51.454;7.194;2023-11-19T15:58:11;9.70;99.90
1391;DHT22;690;51.454;7.194;2023-11-19T16:00:38;9.60;99.90
1391;DHT22;690;51.454;7.194;2023-11-19T16:03:16;9.60;99.90
1391;DHT22;690;51.454;7.194;2023-11-19T16:05:43;9.50;1.00
1391;DHT22;690;51.454;7.194;2023-11-19T16:08:10;9.40;1.00
1391;DHT22;690;51.454;7.194;2023-11-19T16:10:38;9.40;1.00
1391;DHT22;690;51.454;7.194;2023-11-19T16:13:08;9.30;1.00
1391;DHT22;690;51.454;7.194;2023-11-19T16:15:35;9.40;15.20
1391;DHT22;690;51.454;7.194;2023-11-19T16:18:03;9.40;99.90
1391;DHT22;690;51.454;7.194;2023-11-19T16:20:30;9.40;99.90
1391;DHT22;690;51.454;7.194;2023-11-19T16:23:00;9.40;99.90
1391;DHT22;690;51.454;7.194;2023-11-19T16:25:29;9.40;99.90
1391;DHT22;690;51.454;7.194;2023-11-19T16:27:58;9.40;99.90
1391;DHT22;690;51.454;7.194;2023-11-19T16:30:25;9.50;99.90
1391;DHT22;690;51.454;7.194;2023-11-19T16:32:56;9.50;99.90
1391;DHT22;690;51.454;7.194;2023-11-19T16:35:24;9.50;99.90
1391;DHT22;690;51.454;7.194;2023-11-19T16:37:51;9.50;99.90
1391;DHT22;690;51.454;7.194;2023-11-19T16:40:18;9.50;99.90
1391;DHT22;690;51.454;7.194;2023-11-19T16:42:45;9.50;99.90